createdAt,value
2023-03-28T00:00:36.314Z,3.42
2023-03-28T00:01:33.624Z,3.31
2023-03-28T00:02:31.129Z,3.44
2023-03-28T00:03:29.642Z,3.39
2023-03-28T00:04:29.960Z,3.60
2023-03-28T00:05:28.229Z,3.05
2023-03-28T00:06:26.452Z,3.27
2023-03-28T00:07:23.789Z,3.47
2023-03-28T00:08:21.731Z,3.44
2023-03-28T00:09:20.265Z,3.53
2023-03-28T00:10:17.588Z,2.86
2023-03-28T00:11:19.645Z,2.71
2023-03-28T00:12:17.473Z,2.73
2023-03-28T00:13:15.640Z,2.70
2023-03-28T00:14:14.345Z,2.80
2023-03-28T00:15:11.715Z,2.86
2023-03-28T00:16:12.942Z,2.81
2023-03-28T00:17:10.557Z,2.74
2023-03-28T00:18:11.559Z,2.33
2023-03-28T00:19:11.697Z,2.30
2023-03-28T00:20:10.703Z,2.55
2023-03-28T00:21:23.607Z,2.74
2023-03-28T00:22:21.333Z,2.34
2023-03-28T00:23:19.202Z,2.47
2023-03-28T00:24:18.851Z,2.29
2023-03-28T00:25:16.295Z,2.35
2023-03-28T00:26:13.644Z,2.19
2023-03-28T00:27:11.013Z,2.62
2023-03-28T00:28:08.320Z,2.31
2023-03-28T00:29:06.871Z,2.23
2023-03-28T00:30:05.141Z,2.40
2023-03-28T00:31:03.634Z,2.49
2023-03-28T00:32:01.102Z,2.51
2023-03-28T00:32:58.749Z,2.49
2023-03-28T00:33:56.742Z,2.72
2023-03-28T00:34:54.051Z,2.61
2023-03-28T00:35:51.520Z,2.34
2023-03-28T00:36:48.894Z,2.88
2023-03-28T00:37:50.999Z,2.95
2023-03-28T00:38:52.424Z,3.25
2023-03-28T00:39:50.147Z,3.08
2023-03-28T00:40:48.714Z,2.79
2023-03-28T00:41:46.274Z,2.61
2023-03-28T00:42:43.629Z,2.79
2023-03-28T00:43:42.701Z,2.73
2023-03-28T00:44:40.031Z,3.03
2023-03-28T00:45:37.439Z,2.98
2023-03-28T00:46:41.163Z,3.23
2023-03-28T00:47:43.767Z,2.70
2023-03-28T00:48:46.874Z,3.03
2023-03-28T00:49:49.639Z,3.18
2023-03-28T00:50:49.579Z,2.86
2023-03-28T00:51:50.805Z,3.09
2023-03-28T00:52:49.742Z,3.39
2023-03-28T00:53:47.496Z,3.47
2023-03-28T00:54:46.411Z,3.75
2023-03-28T00:55:49.247Z,3.59
2023-03-28T00:56:52.895Z,3.71
2023-03-28T00:57:53.071Z,3.83
2023-03-28T00:58:51.460Z,4.22
2023-03-28T00:59:48.881Z,4.25
2023-03-28T01:00:46.966Z,4.52
2023-03-28T01:01:45.292Z,4.41
2023-03-28T01:02:51.366Z,4.34
2023-03-28T01:03:52.376Z,4.31
2023-03-28T01:04:55.393Z,4.30
2023-03-28T01:05:53.153Z,4.37
2023-03-28T01:06:55.028Z,4.24
2023-03-28T01:07:56.007Z,4.37
2023-03-28T01:08:54.586Z,4.79
2023-03-28T01:09:52.012Z,4.77
2023-03-28T01:10:49.801Z,5.01
2023-03-28T01:11:48.055Z,4.40
2023-03-28T01:12:45.906Z,4.53
2023-03-28T01:13:49.907Z,4.57
2023-03-28T01:14:47.797Z,5.25
2023-03-28T01:15:48.907Z,4.88
2023-03-28T01:16:47.932Z,4.97
2023-03-28T01:17:46.564Z,5.68
2023-03-28T01:18:51.610Z,5.44
2023-03-28T01:19:50.479Z,5.30
2023-03-28T01:20:49.333Z,5.66
2023-03-28T01:21:54.955Z,5.90
2023-03-28T01:22:57.234Z,5.64
2023-03-28T01:24:11.891Z,5.42
2023-03-28T01:25:32.768Z,5.42
2023-03-28T01:26:49.976Z,5.60
2023-03-28T01:28:07.569Z,5.49
2023-03-28T01:29:34.059Z,5.94
2023-03-28T01:30:49.700Z,5.98
2023-03-28T01:32:07.979Z,6.02
2023-03-28T01:33:29.028Z,5.83
2023-03-28T01:34:39.850Z,5.78
2023-03-28T01:35:50.121Z,6.51
2023-03-28T01:36:47.850Z,6.15
2023-03-28T01:37:45.870Z,6.23
2023-03-28T01:39:00.782Z,6.08
2023-03-28T01:39:58.100Z,5.72
2023-03-28T01:41:01.140Z,6.08
2023-03-28T01:42:01.463Z,6.24
2023-03-28T01:43:05.033Z,6.16
2023-03-28T01:44:10.628Z,5.95
2023-03-28T01:45:11.660Z,6.36
2023-03-28T01:46:11.837Z,5.63
2023-03-28T01:47:14.991Z,6.04
2023-03-28T01:48:32.579Z,6.96
2023-03-28T01:49:35.967Z,6.41
2023-03-28T01:50:46.379Z,6.01
2023-03-28T01:51:52.045Z,6.19
2023-03-28T01:53:09.124Z,6.47
2023-03-28T01:54:09.295Z,6.52
2023-03-28T01:55:06.603Z,6.78
2023-03-28T01:56:10.730Z,6.78
2023-03-28T01:57:23.290Z,7.11
2023-03-28T01:58:31.240Z,7.16
2023-03-28T01:59:43.680Z,6.85
2023-03-28T02:00:43.375Z,7.53
2023-03-28T02:01:46.721Z,7.45
2023-03-28T02:02:57.334Z,7.25
2023-03-28T02:03:58.362Z,7.35
2023-03-28T02:04:57.992Z,7.27
2023-03-28T02:05:57.763Z,7.34
2023-03-28T02:06:57.492Z,7.49
2023-03-28T02:07:56.034Z,7.81
2023-03-28T02:08:55.325Z,7.10
2023-03-28T02:09:56.386Z,7.13
2023-03-28T02:10:56.483Z,7.30
2023-03-28T02:11:59.235Z,7.66
2023-03-28T02:12:59.922Z,7.87
2023-03-28T02:14:04.832Z,7.53
2023-03-28T02:15:05.126Z,8.21
2023-03-28T02:16:05.270Z,7.87
2023-03-28T02:17:09.386Z,8.09
2023-03-28T02:18:12.479Z,8.42
2023-03-28T02:19:12.608Z,8.20
2023-03-28T02:20:14.847Z,8.30
2023-03-28T02:21:21.552Z,9.03
2023-03-28T02:22:24.687Z,8.73
2023-03-28T02:23:30.617Z,8.34
2023-03-28T02:24:28.349Z,9.59
2023-03-28T02:25:26.293Z,9.46
2023-03-28T02:26:25.978Z,9.52
2023-03-28T02:27:23.472Z,9.36
2023-03-28T02:28:23.094Z,9.08
2023-03-28T02:29:21.073Z,9.72
2023-03-28T02:30:19.814Z,10.15
2023-03-28T02:31:17.281Z,9.89
2023-03-28T02:32:14.906Z,9.81
2023-03-28T02:33:30.999Z,10.10
2023-03-28T02:34:28.449Z,9.57
2023-03-28T02:35:30.138Z,10.16
2023-03-28T02:36:27.454Z,9.17
2023-03-28T02:37:44.665Z,9.97
2023-03-28T02:38:48.625Z,9.82
2023-03-28T02:39:53.298Z,9.30
2023-03-28T02:40:50.757Z,9.81
2023-03-28T02:42:14.117Z,9.32
2023-03-28T02:43:20.958Z,8.91
2023-03-28T02:44:20.787Z,9.63
2023-03-28T02:45:21.481Z,9.94
2023-03-28T02:46:37.421Z,10.48
2023-03-28T02:47:53.393Z,9.56
2023-03-28T02:49:06.121Z,9.60
2023-03-28T02:50:09.345Z,9.29
2023-03-28T02:51:22.648Z,9.77
2023-03-28T02:52:52.273Z,9.49
2023-03-28T02:54:05.011Z,10.11
2023-03-28T02:55:05.437Z,9.86
2023-03-28T02:56:12.895Z,9.58
2023-03-28T02:57:19.943Z,9.13
2023-03-28T02:58:29.560Z,9.53
2023-03-28T02:59:34.986Z,8.73
2023-03-28T03:00:32.557Z,8.40
2023-03-28T03:01:30.769Z,8.88
2023-03-28T03:02:29.207Z,8.21
2023-03-28T03:03:26.684Z,8.77
2023-03-28T03:04:24.101Z,8.03
2023-03-28T03:05:21.598Z,8.23
2023-03-28T03:06:19.515Z,8.65
2023-03-28T03:07:18.280Z,8.52
2023-03-28T03:08:15.763Z,8.05
2023-03-28T03:09:13.339Z,7.76
2023-03-28T03:10:11.997Z,7.50
2023-03-28T03:11:09.582Z,7.83
2023-03-28T03:12:07.164Z,7.73
2023-03-28T03:13:04.437Z,7.44
2023-03-28T03:14:01.792Z,7.40
2023-03-28T03:15:01.131Z,7.14
2023-03-28T03:15:58.818Z,6.90
2023-03-28T03:16:56.303Z,7.56
2023-03-28T03:17:53.648Z,7.51
2023-03-28T03:18:50.996Z,7.29
2023-03-28T03:19:48.358Z,7.30
2023-03-28T03:20:50.442Z,7.15
2023-03-28T03:21:49.659Z,7.59
2023-03-28T03:22:46.973Z,7.48
2023-03-28T03:23:44.328Z,7.04
2023-03-28T03:24:41.650Z,7.26
2023-03-28T03:25:39.455Z,7.22
2023-03-28T03:26:36.847Z,7.20
2023-03-28T03:27:35.342Z,7.45
2023-03-28T03:28:32.768Z,7.66
2023-03-28T03:29:39.116Z,7.48
2023-03-28T03:30:37.295Z,7.68
2023-03-28T03:31:34.762Z,7.66
2023-03-28T03:32:33.449Z,7.36
2023-03-28T03:33:32.389Z,8.18
2023-03-28T03:34:30.134Z,7.60
2023-03-28T03:35:33.476Z,7.48
2023-03-28T03:36:31.767Z,7.70
2023-03-28T03:37:29.094Z,7.98
2023-03-28T03:38:26.452Z,8.04
2023-03-28T03:39:23.911Z,8.26
2023-03-28T03:40:21.245Z,7.78
2023-03-28T03:41:18.584Z,7.56
2023-03-28T03:42:15.948Z,7.34
2023-03-28T03:43:13.265Z,7.27
2023-03-28T03:44:10.609Z,7.21
2023-03-28T03:45:08.286Z,6.48
2023-03-28T03:46:05.831Z,6.59
2023-03-28T03:47:03.900Z,6.76
2023-03-28T03:48:01.328Z,7.51
2023-03-28T03:48:58.734Z,7.33
2023-03-28T03:49:56.034Z,6.92
2023-03-28T03:50:53.354Z,6.94
2023-03-28T03:51:50.840Z,6.83
2023-03-28T03:52:48.218Z,6.17
2023-03-28T03:53:46.780Z,6.17
2023-03-28T03:54:44.164Z,6.25
2023-03-28T03:55:41.715Z,5.89
2023-03-28T03:56:39.090Z,6.05
2023-03-28T03:57:36.842Z,5.80
2023-03-28T03:58:34.207Z,6.04
2023-03-28T03:59:31.796Z,6.08
2023-03-28T04:00:29.481Z,5.98
2023-03-28T04:01:30.228Z,5.84
2023-03-28T04:02:27.812Z,5.66
2023-03-28T04:03:26.771Z,6.15
2023-03-28T04:04:24.293Z,5.93
2023-03-28T04:05:21.688Z,5.22
2023-03-28T04:06:19.435Z,5.93
2023-03-28T04:07:16.831Z,5.44
2023-03-28T04:08:14.118Z,5.55
2023-03-28T04:09:11.538Z,4.92
2023-03-28T04:10:09.115Z,5.16
2023-03-28T04:11:07.878Z,5.32
2023-03-28T04:12:06.511Z,5.31
2023-03-28T04:13:04.194Z,4.73
2023-03-28T04:14:02.160Z,4.61
2023-03-28T04:14:59.569Z,4.71
2023-03-28T04:15:56.888Z,4.75
2023-03-28T04:16:54.997Z,4.68
2023-03-28T04:17:56.914Z,4.26
2023-03-28T04:18:54.319Z,4.79
2023-03-28T04:19:51.786Z,4.51
2023-03-28T04:20:55.343Z,3.90
2023-03-28T04:21:52.866Z,4.22
2023-03-28T04:22:50.371Z,4.20
2023-03-28T04:23:48.312Z,3.65
2023-03-28T04:24:45.906Z,3.97
2023-03-28T04:25:43.268Z,3.68
2023-03-28T04:26:40.929Z,4.00
2023-03-28T04:27:39.539Z,3.75
2023-03-28T04:28:36.927Z,3.79
2023-03-28T04:29:34.218Z,4.13
2023-03-28T04:30:31.805Z,3.64
2023-03-28T04:31:29.699Z,3.52
2023-03-28T04:32:27.270Z,4.10
2023-03-28T04:33:25.809Z,4.36
2023-03-28T04:34:29.689Z,4.33
2023-03-28T04:35:29.799Z,3.97
2023-03-28T04:36:29.297Z,3.92
2023-03-28T04:37:27.694Z,3.61
2023-03-28T04:38:26.218Z,3.63
2023-03-28T04:39:23.966Z,3.46
2023-03-28T04:40:21.757Z,3.70
2023-03-28T04:41:19.155Z,4.29
2023-03-28T04:42:17.610Z,3.70
2023-03-28T04:43:14.899Z,3.80
2023-03-28T04:44:12.268Z,4.18
2023-03-28T04:45:10.117Z,4.14
2023-03-28T04:46:07.488Z,3.54
2023-03-28T04:47:04.988Z,3.97
2023-03-28T04:48:02.378Z,3.92
2023-03-28T04:48:59.709Z,3.99
2023-03-28T04:49:58.602Z,3.95
2023-03-28T04:50:56.167Z,4.29
2023-03-28T04:51:53.585Z,5.16
2023-03-28T04:52:50.908Z,4.89
2023-03-28T04:53:48.310Z,5.71
2023-03-28T04:54:45.609Z,4.73
2023-03-28T04:55:44.174Z,4.01
2023-03-28T04:56:41.606Z,4.24
2023-03-28T04:57:39.052Z,5.83
2023-03-28T04:58:36.696Z,5.06
2023-03-28T04:59:34.018Z,6.05
2023-03-28T05:00:31.767Z,6.90
2023-03-28T05:01:29.146Z,4.58
2023-03-28T05:02:26.654Z,4.37
2023-03-28T05:03:25.075Z,4.06
2023-03-28T05:04:23.673Z,4.16
2023-03-28T05:05:21.208Z,4.11
2023-03-28T05:06:18.681Z,4.11
2023-03-28T05:07:16.073Z,4.21
2023-03-28T05:08:15.583Z,4.84
2023-03-28T05:09:14.339Z,4.27
2023-03-28T05:10:14.018Z,4.35
2023-03-28T05:11:11.681Z,5.01
2023-03-28T05:12:09.049Z,4.30
2023-03-28T05:13:06.542Z,4.80
2023-03-28T05:14:04.010Z,4.76
2023-03-28T05:15:01.395Z,5.13
2023-03-28T05:15:58.729Z,5.13
2023-03-28T05:16:56.174Z,4.96
2023-03-28T05:17:53.646Z,5.75
2023-03-28T05:18:51.487Z,5.15
2023-03-28T05:19:48.842Z,4.56
2023-03-28T05:20:46.380Z,4.65
2023-03-28T05:21:43.777Z,5.30
2023-03-28T05:22:41.108Z,4.93
2023-03-28T05:23:38.409Z,5.12
2023-03-28T05:24:36.952Z,6.40
2023-03-28T05:25:35.070Z,6.59
2023-03-28T05:26:32.415Z,5.65
2023-03-28T05:27:29.716Z,6.03
2023-03-28T05:28:27.057Z,5.91
2023-03-28T05:29:24.466Z,6.19
2023-03-28T05:30:22.061Z,5.92
2023-03-28T05:31:19.568Z,5.91
2023-03-28T05:32:16.987Z,6.56
2023-03-28T05:33:14.436Z,7.05
2023-03-28T05:34:11.794Z,7.59
2023-03-28T05:35:11.343Z,7.52
2023-03-28T05:36:09.042Z,7.99
2023-03-28T05:37:06.676Z,8.50
2023-03-28T05:38:04.369Z,8.63
2023-03-28T05:39:01.944Z,8.29
2023-03-28T05:39:59.727Z,8.41
2023-03-28T05:40:58.809Z,8.17
2023-03-28T05:41:59.199Z,8.44
2023-03-28T05:42:56.528Z,8.84
2023-03-28T05:43:54.061Z,8.75
2023-03-28T05:44:51.540Z,8.83
2023-03-28T05:45:48.938Z,8.77
2023-03-28T05:46:46.393Z,8.98
2023-03-28T05:47:43.834Z,9.52
2023-03-28T05:48:41.528Z,9.23
2023-03-28T05:49:39.080Z,9.53
2023-03-28T05:50:36.502Z,9.35
2023-03-28T05:51:33.849Z,9.46
2023-03-28T05:52:31.189Z,10.12
2023-03-28T05:53:28.658Z,10.17
2023-03-28T05:54:26.043Z,10.27
2023-03-28T05:55:23.367Z,10.33
2023-03-28T05:56:21.065Z,10.92
2023-03-28T05:57:19.294Z,10.51
2023-03-28T05:58:17.570Z,10.04
2023-03-28T05:59:14.870Z,10.35
2023-03-28T06:00:12.644Z,10.33
2023-03-28T06:01:10.063Z,11.08
2023-03-28T06:02:14.954Z,11.43
2023-03-28T06:03:16.656Z,10.66
2023-03-28T06:04:15.015Z,10.67
2023-03-28T06:05:13.905Z,10.27
2023-03-28T06:06:12.160Z,10.49
2023-03-28T06:07:09.869Z,10.29
2023-03-28T06:08:09.408Z,10.30
2023-03-28T06:09:06.729Z,10.46
2023-03-28T06:10:04.686Z,10.39
2023-03-28T06:11:03.065Z,10.81
2023-03-28T06:12:00.542Z,10.59
2023-03-28T06:12:57.882Z,10.23
2023-03-28T06:13:55.290Z,10.18
2023-03-28T06:14:52.626Z,10.04
2023-03-28T06:15:49.938Z,10.21
2023-03-28T06:16:47.387Z,10.23
2023-03-28T06:17:44.795Z,10.36
2023-03-28T06:18:42.127Z,10.34
2023-03-28T06:19:39.560Z,10.30
2023-03-28T06:20:36.914Z,10.72
2023-03-28T06:21:34.242Z,10.75
2023-03-28T06:22:31.659Z,10.01
2023-03-28T06:23:28.964Z,10.54
2023-03-28T06:24:26.323Z,10.41
2023-03-28T06:25:23.819Z,10.16
2023-03-28T06:26:21.353Z,9.50
2023-03-28T06:27:18.693Z,10.08
2023-03-28T06:28:16.211Z,10.27
2023-03-28T06:29:13.613Z,10.73
2023-03-28T06:30:11.263Z,10.79
2023-03-28T06:31:10.592Z,10.35
2023-03-28T06:32:07.907Z,10.02
2023-03-28T06:33:05.473Z,9.90
2023-03-28T06:34:02.911Z,9.95
2023-03-28T06:35:00.250Z,10.35
2023-03-28T06:35:57.570Z,10.64
2023-03-28T06:36:55.010Z,9.83
2023-03-28T06:37:52.450Z,9.30
2023-03-28T06:38:50.464Z,9.13
2023-03-28T06:39:50.783Z,9.21
2023-03-28T06:40:48.163Z,9.37
2023-03-28T06:41:45.613Z,9.51
2023-03-28T06:42:43.396Z,9.02
2023-03-28T06:43:40.827Z,10.09
2023-03-28T06:44:38.200Z,9.93
2023-03-28T06:45:35.528Z,9.91
2023-03-28T06:46:33.211Z,10.70
2023-03-28T06:47:30.712Z,10.65
2023-03-28T06:48:33.581Z,10.26
2023-03-28T06:49:32.318Z,10.03
2023-03-28T06:50:29.812Z,10.57
2023-03-28T06:51:27.434Z,10.77
2023-03-28T06:52:24.799Z,10.83
2023-03-28T06:53:22.268Z,10.58
2023-03-28T06:54:19.656Z,9.93
2023-03-28T06:55:16.972Z,10.53
2023-03-28T06:56:14.272Z,10.58
2023-03-28T06:57:11.657Z,10.36
2023-03-28T06:58:09.628Z,10.40
2023-03-28T06:59:07.115Z,10.50
2023-03-28T07:00:07.354Z,10.53
2023-03-28T07:01:04.861Z,10.33
2023-03-28T07:02:02.497Z,10.92
2023-03-28T07:03:00.823Z,10.36
2023-03-28T07:03:59.631Z,10.73
2023-03-28T07:04:57.286Z,10.67
2023-03-28T07:05:54.668Z,10.45
2023-03-28T07:06:51.984Z,10.49
2023-03-28T07:07:49.497Z,10.77
2023-03-28T07:08:46.808Z,10.27
2023-03-28T07:09:44.202Z,10.19
2023-03-28T07:10:42.555Z,10.15
2023-03-28T07:11:40.010Z,10.66
2023-03-28T07:12:37.557Z,9.95
2023-03-28T07:13:35.377Z,9.77
2023-03-28T07:14:32.709Z,10.34
2023-03-28T07:15:30.204Z,10.20
2023-03-28T07:16:27.558Z,10.31
2023-03-28T07:17:25.105Z,10.15
2023-03-28T07:18:22.436Z,10.35
2023-03-28T07:19:19.743Z,10.68
2023-03-28T07:20:17.140Z,10.59
2023-03-28T07:21:16.466Z,10.36
2023-03-28T07:22:13.769Z,10.56
2023-03-28T07:23:11.121Z,10.08
2023-03-28T07:24:08.475Z,10.21
2023-03-28T07:25:06.173Z,9.93
2023-03-28T07:26:03.576Z,10.30
2023-03-28T07:27:12.365Z,10.21
2023-03-28T07:28:12.672Z,10.03
2023-03-28T07:29:10.075Z,10.25
2023-03-28T07:30:07.861Z,10.16
2023-03-28T07:31:05.569Z,10.49
2023-03-28T07:32:03.173Z,9.88
2023-03-28T07:33:13.019Z,10.22
2023-03-28T07:34:18.709Z,9.79
2023-03-28T07:35:16.245Z,10.40
2023-03-28T07:36:15.190Z,10.17
2023-03-28T07:37:12.637Z,10.36
2023-03-28T07:38:10.134Z,10.60
2023-03-28T07:39:08.202Z,10.12
2023-03-28T07:40:06.306Z,10.43
2023-03-28T07:41:04.237Z,10.43
2023-03-28T07:42:01.751Z,10.86
2023-03-28T07:42:59.081Z,10.50
2023-03-28T07:43:56.576Z,10.44
2023-03-28T07:44:54.141Z,10.65
2023-03-28T07:45:51.804Z,10.45
2023-03-28T07:46:51.255Z,10.47
2023-03-28T07:47:48.707Z,9.89
2023-03-28T07:48:46.690Z,10.01
2023-03-28T07:49:45.358Z,10.16
2023-03-28T07:50:42.921Z,10.33
2023-03-28T07:51:40.335Z,9.89
2023-03-28T07:52:37.844Z,10.92
2023-03-28T07:53:37.564Z,10.20
2023-03-28T07:54:35.001Z,11.11
2023-03-28T07:55:39.472Z,10.32
2023-03-28T07:56:46.113Z,10.81
2023-03-28T07:57:45.415Z,10.49
2023-03-28T07:58:42.817Z,11.08
2023-03-28T07:59:40.141Z,11.50
2023-03-28T08:00:37.516Z,10.74
2023-03-28T08:01:35.005Z,11.47
2023-03-28T08:02:32.456Z,11.07
2023-03-28T08:03:29.975Z,11.37
2023-03-28T08:04:27.882Z,11.65
2023-03-28T08:05:26.650Z,11.16
2023-03-28T08:06:32.234Z,10.57
2023-03-28T08:07:30.350Z,11.83
2023-03-28T08:08:27.677Z,11.28
2023-03-28T08:09:24.980Z,10.50
2023-03-28T08:10:22.388Z,10.34
2023-03-28T08:11:19.714Z,10.36
2023-03-28T08:12:19.104Z,11.77
2023-03-28T08:13:16.927Z,11.57
2023-03-28T08:14:16.274Z,11.19
2023-03-28T08:15:13.604Z,10.85
2023-03-28T08:16:10.935Z,10.49
2023-03-28T08:17:09.578Z,11.73
2023-03-28T08:18:07.135Z,11.77
2023-03-28T08:20:11.149Z,10.10
2023-03-28T08:21:08.544Z,10.61
2023-03-28T08:22:05.872Z,9.69
2023-03-28T08:23:03.214Z,10.08
2023-03-28T08:24:01.094Z,9.89
2023-03-28T08:24:58.675Z,9.87
2023-03-28T08:26:04.602Z,10.03
2023-03-28T08:27:02.120Z,9.94
2023-03-28T08:27:59.573Z,10.08
2023-03-28T08:28:59.033Z,10.23
2023-03-28T08:29:57.906Z,9.95
2023-03-28T08:30:55.462Z,9.99
2023-03-28T08:31:53.164Z,10.30
2023-03-28T08:32:51.695Z,9.96
2023-03-28T08:33:53.380Z,9.56
2023-03-28T08:34:50.683Z,10.08
2023-03-28T08:35:48.256Z,9.68
2023-03-28T08:36:45.572Z,9.91
2023-03-28T08:37:42.937Z,10.10
2023-03-28T08:38:44.433Z,9.89
2023-03-28T08:39:42.818Z,10.39
2023-03-28T08:40:45.929Z,10.23
2023-03-28T08:42:06.023Z,10.17
2023-03-28T08:43:13.084Z,10.83
2023-03-28T08:44:19.607Z,10.17
2023-03-28T08:45:29.116Z,10.29
2023-03-28T08:46:28.445Z,9.87
2023-03-28T08:47:29.440Z,10.93
2023-03-28T08:48:34.845Z,11.13
2023-03-28T08:49:38.601Z,10.29
2023-03-28T08:50:56.160Z,9.98
2023-03-28T08:51:59.126Z,9.76
2023-03-28T08:52:56.750Z,10.30
2023-03-28T08:54:12.760Z,9.55
2023-03-28T08:55:28.801Z,9.85
2023-03-28T08:56:27.951Z,9.90
2023-03-28T08:57:28.742Z,9.63
2023-03-28T08:58:31.662Z,10.14
2023-03-28T08:59:40.847Z,9.81
2023-03-28T09:00:38.979Z,9.32
2023-03-28T09:01:36.620Z,9.88
2023-03-28T09:02:34.128Z,9.46
2023-03-28T09:03:33.239Z,8.98
2023-03-28T09:04:37.141Z,9.43
2023-03-28T09:06:02.470Z,9.41
2023-03-28T09:07:22.506Z,9.13
2023-03-28T09:08:31.886Z,9.56
2023-03-28T09:09:55.492Z,9.08
2023-03-28T09:11:13.293Z,9.18
2023-03-28T09:12:30.889Z,9.12
2023-03-28T09:13:46.338Z,9.92
2023-03-28T09:14:57.882Z,9.81
2023-03-28T09:16:02.448Z,9.41
2023-03-28T09:17:03.047Z,9.60
2023-03-28T09:18:00.327Z,9.50
2023-03-28T09:19:00.553Z,8.95
2023-03-28T09:20:12.064Z,8.99
2023-03-28T09:21:24.438Z,9.01
2023-03-28T09:22:40.664Z,8.88
2023-03-28T09:23:50.775Z,8.85
2023-03-28T09:25:00.895Z,8.76
2023-03-28T09:26:02.014Z,9.06
2023-03-28T09:26:59.344Z,9.14
2023-03-28T09:27:59.582Z,9.06
2023-03-28T09:29:04.019Z,8.66
2023-03-28T09:30:23.423Z,9.04
2023-03-28T09:31:27.225Z,8.19
2023-03-28T09:32:30.748Z,8.11
2023-03-28T09:33:31.019Z,8.71
2023-03-28T09:34:35.540Z,8.60
2023-03-28T09:35:34.371Z,8.02
2023-03-28T09:36:45.357Z,8.61
2023-03-28T09:37:50.128Z,8.86
2023-03-28T09:38:57.067Z,8.64
2023-03-28T09:39:56.517Z,8.39
2023-03-28T09:40:57.478Z,8.21
2023-03-28T09:42:06.460Z,8.58
2023-03-28T09:43:06.657Z,8.85
2023-03-28T09:44:06.513Z,8.35
2023-03-28T09:45:06.709Z,8.87
2023-03-28T09:46:09.950Z,9.18
2023-03-28T09:47:12.385Z,8.22
2023-03-28T09:48:16.499Z,8.66
2023-03-28T09:49:18.198Z,8.94
2023-03-28T09:50:16.551Z,9.07
2023-03-28T09:51:16.834Z,8.54
2023-03-28T09:52:22.935Z,8.36
2023-03-28T09:53:22.972Z,8.43
2023-03-28T09:54:28.712Z,8.43
2023-03-28T09:55:29.084Z,8.15
2023-03-28T09:56:35.392Z,8.87
2023-03-28T09:57:51.469Z,8.21
2023-03-28T09:58:48.790Z,8.62
2023-03-28T09:59:46.277Z,8.26
2023-03-28T10:00:46.928Z,8.15
2023-03-28T10:01:50.447Z,7.95
2023-03-28T10:02:52.282Z,8.51
2023-03-28T10:03:56.810Z,7.92
2023-03-28T10:04:54.908Z,8.26
2023-03-28T10:05:52.829Z,8.94
2023-03-28T10:06:50.162Z,8.75
2023-03-28T10:07:48.096Z,8.69
2023-03-28T10:08:45.836Z,8.90
2023-03-28T10:09:57.269Z,8.08
2023-03-28T10:10:55.470Z,9.26
2023-03-28T10:11:54.848Z,8.44
2023-03-28T10:12:57.141Z,8.89
2023-03-28T10:13:55.621Z,8.65
2023-03-28T10:14:52.932Z,8.89
2023-03-28T10:15:51.049Z,8.61
2023-03-28T10:16:51.963Z,9.14
2023-03-28T10:17:50.184Z,8.76
2023-03-28T10:18:47.624Z,8.95
2023-03-28T10:19:47.317Z,8.51
2023-03-28T10:20:45.364Z,8.38
2023-03-28T10:21:48.109Z,8.21
2023-03-28T10:22:47.994Z,8.51
2023-03-28T10:23:49.938Z,8.60
2023-03-28T10:24:48.323Z,8.27
2023-03-28T10:25:50.684Z,8.18
2023-03-28T10:26:48.551Z,8.05
2023-03-28T10:27:47.651Z,7.99
2023-03-28T10:28:45.558Z,7.34
2023-03-28T10:29:43.838Z,7.97
2023-03-28T10:30:42.416Z,7.81
2023-03-28T10:31:40.145Z,7.68
2023-03-28T10:32:37.479Z,8.25
2023-03-28T10:33:37.505Z,8.17
2023-03-28T10:34:35.017Z,7.71
2023-03-28T10:35:33.943Z,7.61
2023-03-28T10:36:40.306Z,7.69
2023-03-28T10:37:37.731Z,7.81
2023-03-28T10:38:37.225Z,7.72
2023-03-28T10:39:35.512Z,7.54
2023-03-28T10:40:33.276Z,8.05
2023-03-28T10:41:30.699Z,7.56
2023-03-28T10:42:38.941Z,7.08
2023-03-28T10:43:40.695Z,7.10
2023-03-28T10:44:40.553Z,7.49
2023-03-28T10:45:40.259Z,7.69
2023-03-28T10:46:41.191Z,7.48
2023-03-28T10:47:41.868Z,7.17
2023-03-28T10:48:42.132Z,7.72
2023-03-28T10:49:52.040Z,7.21
2023-03-28T10:50:52.400Z,7.12
2023-03-28T10:51:49.936Z,7.17
2023-03-28T10:52:54.465Z,7.15
2023-03-28T10:54:10.600Z,7.37
2023-03-28T10:55:20.562Z,7.14
2023-03-28T10:56:21.127Z,7.58
2023-03-28T10:57:33.973Z,7.48
2023-03-28T10:58:36.284Z,7.53
2023-03-28T10:59:42.599Z,6.96
2023-03-28T11:00:47.395Z,7.63
2023-03-28T11:02:00.418Z,7.49
2023-03-28T11:03:18.739Z,7.37
2023-03-28T11:04:31.351Z,7.44
2023-03-28T11:05:42.524Z,7.31
2023-03-28T11:06:47.531Z,7.59
2023-03-28T11:07:53.256Z,7.32
2023-03-28T11:09:06.871Z,7.74
2023-03-28T11:10:06.980Z,7.29
2023-03-28T11:11:10.491Z,7.34
2023-03-28T11:12:29.032Z,6.90
2023-03-28T11:13:46.453Z,6.94
2023-03-28T11:14:43.788Z,6.76
2023-03-28T11:15:54.940Z,6.57
2023-03-28T11:16:55.897Z,6.36
2023-03-28T11:18:11.860Z,6.65
2023-03-28T11:19:09.224Z,6.70
2023-03-28T11:20:21.671Z,7.08
2023-03-28T11:21:24.809Z,7.13
2023-03-28T11:22:32.881Z,7.15
2023-03-28T11:24:02.531Z,7.52
2023-03-28T11:25:17.914Z,8.18
2023-03-28T11:26:17.735Z,8.20
2023-03-28T11:27:24.156Z,7.64
2023-03-28T11:28:21.606Z,7.05
2023-03-28T11:29:41.973Z,6.90
2023-03-28T11:30:42.756Z,6.89
2023-03-28T11:31:45.982Z,6.53
2023-03-28T11:33:09.435Z,6.88
2023-03-28T11:34:25.706Z,6.89
2023-03-28T11:35:27.228Z,6.73
2023-03-28T11:36:33.911Z,7.50
2023-03-28T11:37:37.242Z,7.08
2023-03-28T11:38:41.991Z,7.06
2023-03-28T11:39:51.538Z,7.04
2023-03-28T11:41:02.868Z,7.22
2023-03-28T11:42:09.399Z,7.23
2023-03-28T11:43:11.583Z,7.16
2023-03-28T11:44:16.126Z,6.68
2023-03-28T11:45:16.775Z,7.02
2023-03-28T11:46:19.965Z,7.21
2023-03-28T11:47:21.941Z,6.53
2023-03-28T11:48:24.092Z,5.95
2023-03-28T11:49:24.231Z,6.30
2023-03-28T11:50:28.395Z,6.38
2023-03-28T11:51:32.273Z,6.16
2023-03-28T11:52:38.375Z,6.08
2023-03-28T11:53:35.898Z,6.16
2023-03-28T11:54:49.392Z,5.69
2023-03-28T11:55:51.220Z,6.27
2023-03-28T11:57:14.213Z,5.93
2023-03-28T11:58:17.606Z,5.90
2023-03-28T11:59:23.611Z,5.83
2023-03-28T12:00:33.917Z,5.83
2023-03-28T12:01:36.636Z,6.20
2023-03-28T12:02:40.156Z,6.25
2023-03-28T12:03:38.679Z,6.01
2023-03-28T12:04:43.094Z,5.95
2023-03-28T12:05:46.533Z,5.79
2023-03-28T12:07:02.187Z,6.09
2023-03-28T12:08:09.464Z,6.11
2023-03-28T12:09:18.945Z,5.60
2023-03-28T12:10:16.657Z,6.24
2023-03-28T12:11:40.239Z,6.62
2023-03-28T12:12:55.730Z,6.27
2023-03-28T12:14:12.617Z,6.28
2023-03-28T12:15:20.128Z,6.28
2023-03-28T12:16:21.931Z,6.15
2023-03-28T12:17:35.148Z,6.51
2023-03-28T12:18:41.627Z,6.02
2023-03-28T12:19:40.499Z,6.00
2023-03-28T12:20:56.228Z,5.99
2023-03-28T12:22:00.949Z,5.94
2023-03-28T12:23:09.317Z,5.99
2023-03-28T12:24:06.606Z,5.95
2023-03-28T12:25:23.011Z,6.21
2023-03-28T12:26:26.443Z,6.01
2023-03-28T12:27:42.937Z,6.14
2023-03-28T12:28:44.985Z,5.51
2023-03-28T12:29:56.756Z,6.15
2023-03-28T12:31:00.226Z,6.00
2023-03-28T12:32:14.203Z,5.83
2023-03-28T12:33:17.385Z,5.67
2023-03-28T12:34:38.310Z,5.65
2023-03-28T12:35:38.367Z,5.87
2023-03-28T12:36:35.702Z,5.76
2023-03-28T12:37:38.157Z,5.80
2023-03-28T12:38:40.077Z,5.30
2023-03-28T12:39:38.113Z,5.97
2023-03-28T12:40:50.505Z,5.75
2023-03-28T12:41:48.310Z,5.87
2023-03-28T12:42:47.212Z,5.81
2023-03-28T12:43:54.189Z,5.06
2023-03-28T12:44:59.950Z,5.20
2023-03-28T12:46:01.093Z,5.09
2023-03-28T12:47:06.052Z,5.33
2023-03-28T12:48:07.769Z,5.06
2023-03-28T12:49:23.241Z,5.22
2023-03-28T12:50:28.582Z,4.97
2023-03-28T12:51:35.639Z,5.01
2023-03-28T12:52:35.394Z,4.71
2023-03-28T12:53:33.363Z,4.60
2023-03-28T12:54:35.024Z,5.19
2023-03-28T12:55:35.620Z,5.29
2023-03-28T12:56:33.108Z,4.93
2023-03-28T12:57:48.615Z,5.27
2023-03-28T12:58:48.755Z,4.99
2023-03-28T12:59:51.910Z,5.08
2023-03-28T13:01:07.530Z,5.19
2023-03-28T13:02:25.350Z,5.27
2023-03-28T13:03:35.354Z,5.31
2023-03-28T13:04:43.276Z,5.46
2023-03-28T13:06:07.367Z,5.02
2023-03-28T13:07:12.687Z,5.05
2023-03-28T13:08:19.339Z,5.35
2023-03-28T13:09:35.546Z,5.39
2023-03-28T13:10:41.706Z,5.32
2023-03-28T13:11:41.972Z,5.35
2023-03-28T13:12:56.868Z,5.31
2023-03-28T13:14:04.399Z,5.28
2023-03-28T13:15:13.660Z,5.42
2023-03-28T13:16:23.369Z,4.87
2023-03-28T13:17:25.516Z,5.47
2023-03-28T13:18:27.877Z,5.51
2023-03-28T13:19:44.592Z,4.82
2023-03-28T13:20:46.246Z,5.71
2023-03-28T13:21:47.775Z,5.35
2023-03-28T13:22:58.495Z,5.52
2023-03-28T13:23:56.053Z,5.51
2023-03-28T13:24:53.666Z,5.43
2023-03-28T13:25:56.287Z,5.21
2023-03-28T13:26:56.593Z,5.49
2023-03-28T13:27:58.483Z,4.76
2023-03-28T13:29:00.032Z,5.16
2023-03-28T13:30:03.735Z,5.03
2023-03-28T13:31:09.045Z,4.94
2023-03-28T13:32:06.812Z,5.27
2023-03-28T13:33:16.570Z,5.08
2023-03-28T13:34:25.174Z,5.02
2023-03-28T13:35:34.613Z,5.35